createdAt,value
2022-09-18T00:01:10.046Z,11.80
2022-09-18T00:03:36.941Z,11.80
2022-09-18T00:06:12.256Z,11.80
2022-09-18T00:08:39.941Z,11.80
2022-09-18T00:11:08.192Z,11.80
2022-09-18T00:13:37.378Z,11.80
2022-09-18T00:16:05.160Z,11.80
2022-09-18T00:21:05.567Z,11.80
2022-09-18T00:25:59.431Z,11.70
2022-09-18T00:28:26.606Z,11.70
2022-09-18T00:33:20.887Z,11.70
2022-09-18T00:35:47.670Z,11.70
2022-09-18T00:38:14.426Z,11.70
2022-09-18T00:40:41.456Z,11.70
2022-09-18T00:43:26.671Z,11.70
2022-09-18T00:46:01.844Z,11.70
2022-09-18T00:48:40.408Z,11.70
2022-09-18T00:53:36.746Z,11.70
2022-09-18T00:56:04.906Z,11.70
2022-09-18T01:01:02.232Z,11.70
2022-09-18T01:03:30.041Z,11.70
2022-09-18T01:06:19.561Z,11.60
2022-09-18T01:08:51.995Z,11.70
2022-09-18T01:11:27.191Z,11.60
2022-09-18T01:13:57.788Z,11.60
2022-09-18T01:19:12.132Z,11.70
2022-09-18T01:21:47.199Z,11.70
2022-09-18T01:24:16.842Z,11.70
2022-09-18T01:29:33.763Z,11.70
2022-09-18T01:32:12.972Z,11.70
2022-09-18T01:35:09.365Z,11.70
2022-09-18T01:37:40.269Z,11.70
2022-09-18T01:40:29.010Z,11.70
2022-09-18T01:43:00.432Z,11.60
2022-09-18T01:45:32.897Z,11.60
2022-09-18T01:48:14.575Z,11.60
2022-09-18T01:50:51.966Z,11.70
2022-09-18T01:53:24.364Z,11.70
2022-09-18T01:56:07.511Z,11.70
2022-09-18T01:58:35.296Z,11.70
2022-09-18T02:01:09.549Z,11.70
2022-09-18T02:03:42.020Z,11.70
2022-09-18T02:06:13.886Z,11.70
2022-09-18T02:08:43.369Z,11.70
2022-09-18T02:11:13.026Z,11.70
2022-09-18T02:13:54.917Z,11.70
2022-09-18T02:16:35.224Z,11.70
2022-09-18T02:19:10.891Z,11.70
2022-09-18T02:21:39.333Z,11.70
2022-09-18T02:24:09.176Z,11.70
2022-09-18T02:26:42.239Z,11.60
2022-09-18T02:29:12.325Z,11.60
2022-09-18T02:34:08.689Z,11.60
2022-09-18T02:36:38.412Z,11.60
2022-09-18T02:39:23.649Z,11.70
2022-09-18T02:42:08.933Z,11.70
2022-09-18T02:44:47.184Z,11.60
2022-09-18T02:47:51.273Z,11.70
2022-09-18T02:51:03.507Z,11.70
2022-09-18T02:54:04.986Z,11.70
2022-09-18T02:56:37.213Z,11.60
2022-09-18T02:59:15.488Z,11.70
2022-09-18T03:01:45.060Z,11.60
2022-09-18T03:04:15.298Z,11.60
2022-09-18T03:06:42.125Z,11.60
2022-09-18T03:11:37.097Z,11.70
2022-09-18T03:14:04.173Z,11.70
2022-09-18T03:18:58.092Z,11.50
2022-09-18T03:21:24.795Z,11.70
2022-09-18T03:23:51.909Z,11.70
2022-09-18T03:26:19.010Z,11.70
2022-09-18T03:28:45.746Z,11.70
2022-09-18T03:36:06.843Z,11.70
2022-09-18T03:41:00.979Z,11.60
2022-09-18T03:45:54.723Z,11.60
2022-09-18T03:50:49.203Z,11.60
2022-09-18T04:00:37.174Z,11.60
2022-09-18T04:03:04.199Z,11.60
2022-09-18T04:05:31.283Z,11.60
2022-09-18T04:07:57.965Z,11.50
2022-09-18T04:12:53.700Z,11.60
2022-09-18T04:22:41.942Z,11.50
2022-09-18T04:27:36.331Z,11.50
2022-09-18T04:32:30.102Z,11.50
2022-09-18T04:34:56.711Z,11.50
2022-09-18T04:39:50.398Z,11.40
2022-09-18T04:54:32.751Z,11.50
2022-09-18T05:01:53.590Z,11.50
2022-09-18T05:06:47.374Z,11.60
2022-09-18T05:11:41.239Z,11.60
2022-09-18T05:16:35.399Z,11.70
2022-09-18T05:21:29.538Z,11.70
2022-09-18T05:26:23.274Z,11.70
2022-09-18T05:28:50.486Z,11.80
2022-09-18T05:31:17.832Z,11.70
2022-09-18T05:36:11.788Z,11.80
2022-09-18T05:38:38.580Z,11.80
2022-09-18T05:41:05.440Z,11.80
2022-09-18T05:46:01.027Z,11.90
2022-09-18T05:48:27.695Z,11.80
2022-09-18T05:53:21.855Z,11.90
2022-09-18T05:55:48.838Z,11.90
2022-09-18T05:58:17.735Z,12.00
2022-09-18T06:00:45.299Z,11.90
2022-09-18T06:03:14.496Z,12.00
2022-09-18T06:08:11.133Z,12.00
2022-09-18T06:10:39.890Z,12.00
2022-09-18T06:13:15.634Z,12.10
2022-09-18T06:15:52.094Z,12.00
2022-09-18T06:18:18.927Z,12.00
2022-09-18T06:20:53.359Z,12.00
2022-09-18T06:25:47.338Z,12.00
2022-09-18T06:30:41.108Z,12.00
2022-09-18T06:33:10.333Z,12.10
2022-09-18T06:35:40.187Z,12.10
2022-09-18T06:38:07.678Z,12.20
2022-09-18T06:43:03.369Z,12.30
2022-09-18T06:45:31.136Z,12.20
2022-09-18T06:48:04.704Z,12.30
2022-09-18T06:50:31.910Z,12.20
2022-09-18T06:53:03.569Z,12.30
2022-09-18T06:55:31.750Z,12.40
2022-09-18T06:57:59.584Z,12.50
2022-09-18T07:00:27.895Z,12.60
2022-09-18T07:03:02.350Z,12.70
2022-09-18T07:05:30.969Z,12.70
2022-09-18T07:07:57.595Z,12.70
2022-09-18T07:10:24.723Z,12.80
2022-09-18T07:12:58.983Z,12.80
2022-09-18T07:15:26.640Z,12.90
2022-09-18T07:17:56.616Z,13.00
2022-09-18T07:22:58.650Z,13.00
2022-09-18T07:25:31.269Z,13.00
2022-09-18T07:28:09.025Z,13.00
2022-09-18T07:30:39.813Z,13.00
2022-09-18T07:33:08.513Z,13.00
2022-09-18T07:38:05.838Z,13.00
2022-09-18T07:40:33.132Z,13.10
2022-09-18T07:43:05.164Z,13.10
2022-09-18T07:45:32.544Z,13.20
2022-09-18T07:48:04.026Z,13.40
2022-09-18T07:50:30.854Z,13.40
2022-09-18T07:52:59.878Z,13.40
2022-09-18T07:55:28.317Z,13.50
2022-09-18T07:58:04.513Z,13.60
2022-09-18T08:00:34.879Z,13.80
2022-09-18T08:03:13.019Z,13.80
2022-09-18T08:05:41.608Z,14.00
2022-09-18T08:08:12.860Z,13.90
2022-09-18T08:10:41.202Z,14.20
2022-09-18T08:13:08.135Z,14.50
2022-09-18T08:15:37.656Z,14.50
2022-09-18T08:18:05.154Z,14.60
2022-09-18T08:20:32.518Z,14.60
2022-09-18T08:25:27.401Z,14.50
2022-09-18T08:27:54.118Z,14.50
2022-09-18T08:30:20.801Z,14.60
2022-09-18T08:37:48.931Z,15.00
2022-09-18T08:40:17.915Z,15.20
2022-09-18T08:43:15.467Z,15.30
2022-09-18T08:46:00.528Z,15.10
2022-09-18T08:48:36.608Z,14.90
2022-09-18T08:51:17.423Z,14.90
2022-09-18T08:53:49.075Z,14.80
2022-09-18T08:56:20.879Z,14.90
2022-09-18T08:59:00.431Z,14.80
2022-09-18T09:01:46.504Z,14.60
2022-09-18T09:04:31.116Z,14.50
2022-09-18T09:07:36.041Z,14.40
2022-09-18T09:10:07.085Z,14.40
2022-09-18T09:12:54.708Z,14.60
2022-09-18T09:15:33.675Z,14.70
2022-09-18T09:18:29.687Z,14.90
2022-09-18T09:20:58.565Z,14.80
2022-09-18T09:23:46.717Z,14.70
2022-09-18T09:26:17.250Z,14.70
2022-09-18T09:29:03.840Z,14.50
2022-09-18T09:31:46.741Z,14.30
2022-09-18T09:34:18.837Z,14.20
2022-09-18T09:36:49.518Z,14.00
2022-09-18T09:39:53.706Z,13.80
2022-09-18T09:42:39.627Z,13.70
2022-09-18T09:45:24.662Z,13.40
2022-09-18T09:48:32.377Z,13.10
2022-09-18T09:51:14.175Z,13.20
2022-09-18T09:53:41.143Z,13.30
2022-09-18T09:56:52.118Z,13.40
2022-09-18T09:59:34.952Z,13.80
2022-09-18T10:02:23.078Z,14.00
2022-09-18T10:05:13.900Z,14.20
2022-09-18T10:07:49.446Z,14.30
2022-09-18T10:10:41.262Z,14.50
2022-09-18T10:13:36.062Z,14.50
2022-09-18T10:16:30.418Z,14.40
2022-09-18T10:18:59.411Z,14.40
2022-09-18T10:21:28.999Z,14.20
2022-09-18T10:24:33.397Z,13.90
2022-09-18T10:27:07.464Z,13.90
2022-09-18T10:32:03.258Z,14.10
2022-09-18T10:34:45.896Z,14.40
2022-09-18T10:37:30.342Z,14.60
2022-09-18T10:39:59.934Z,14.70
2022-09-18T10:42:29.204Z,14.70
2022-09-18T10:45:01.948Z,14.60
2022-09-18T10:50:11.360Z,14.50
2022-09-18T10:52:44.756Z,14.60
2022-09-18T10:55:20.660Z,14.90
2022-09-18T10:58:04.928Z,14.90
2022-09-18T11:00:36.925Z,15.00
2022-09-18T11:03:37.807Z,15.10
2022-09-18T11:06:23.964Z,15.20
2022-09-18T11:08:54.513Z,14.70
2022-09-18T11:11:21.176Z,14.40
2022-09-18T11:14:01.043Z,14.10
2022-09-18T11:16:41.782Z,13.80
2022-09-18T11:19:12.607Z,13.80
2022-09-18T11:21:55.087Z,14.00
2022-09-18T11:24:32.824Z,14.30
2022-09-18T11:27:01.396Z,14.20
2022-09-18T11:29:33.631Z,14.30
2022-09-18T11:32:17.152Z,14.40
2022-09-18T11:34:49.737Z,14.60
2022-09-18T11:37:39.450Z,14.60
2022-09-18T11:40:22.520Z,15.00
2022-09-18T11:42:52.344Z,15.10
2022-09-18T11:45:43.122Z,15.10
2022-09-18T11:48:17.951Z,15.10
2022-09-18T11:50:46.623Z,15.00
2022-09-18T11:53:26.112Z,15.00
2022-09-18T11:56:35.248Z,15.10
2022-09-18T11:59:09.444Z,15.20
2022-09-18T12:01:47.433Z,15.00
2022-09-18T12:04:21.516Z,14.80
2022-09-18T12:07:03.113Z,14.80
2022-09-18T12:09:42.808Z,14.60
2022-09-18T12:12:38.090Z,14.70
2022-09-18T12:15:13.746Z,14.90
2022-09-18T12:18:06.873Z,15.20
2022-09-18T12:20:40.780Z,15.30
2022-09-18T12:23:18.848Z,15.30
2022-09-18T12:26:19.300Z,15.30
2022-09-18T12:29:13.828Z,15.30
2022-09-18T12:32:03.824Z,15.40
2022-09-18T12:34:49.715Z,15.20
2022-09-18T12:37:25.474Z,15.20
2022-09-18T12:40:28.951Z,15.20
2022-09-18T12:43:16.023Z,15.30
2022-09-18T12:46:10.809Z,15.20
2022-09-18T12:48:40.469Z,14.80
2022-09-18T12:51:35.847Z,14.50
2022-09-18T12:54:39.681Z,14.40
2022-09-18T12:57:30.592Z,14.20
2022-09-18T13:00:14.882Z,14.00
2022-09-18T13:02:51.446Z,13.70
2022-09-18T13:05:33.358Z,13.10
2022-09-18T13:08:11.159Z,12.60
2022-09-18T13:10:43.560Z,12.10
2022-09-18T13:13:25.454Z,11.90
2022-09-18T13:16:14.684Z,11.70
2022-09-18T13:18:59.704Z,11.60
2022-09-18T13:21:35.759Z,11.40
2022-09-18T13:24:03.619Z,11.40
2022-09-18T13:26:36.975Z,10.30
2022-09-18T13:29:04.168Z,11.40
2022-09-18T13:31:33.528Z,11.40
2022-09-18T13:34:06.598Z,11.60
2022-09-18T13:36:36.701Z,11.80
2022-09-18T13:39:21.226Z,12.00
2022-09-18T13:41:50.675Z,12.00
2022-09-18T13:44:35.347Z,12.10
2022-09-18T13:47:15.586Z,12.20
2022-09-18T13:49:58.343Z,12.40
2022-09-18T13:52:34.021Z,12.50
2022-09-18T13:55:12.752Z,12.60
2022-09-18T13:57:40.947Z,12.70
2022-09-18T14:00:20.055Z,12.70
2022-09-18T14:02:47.318Z,12.80
2022-09-18T14:05:34.498Z,12.80
2022-09-18T14:08:04.608Z,12.80
2022-09-18T14:10:36.384Z,12.80
2022-09-18T14:13:12.205Z,12.70
2022-09-18T14:15:38.890Z,12.70
2022-09-18T14:18:21.098Z,12.70
2022-09-18T14:20:55.259Z,12.70
2022-09-18T14:23:34.404Z,12.70
2022-09-18T14:26:01.694Z,12.50
2022-09-18T14:28:29.541Z,12.50
2022-09-18T14:31:14.989Z,12.50
2022-09-18T14:33:43.528Z,12.50
2022-09-18T14:36:14.631Z,12.50
2022-09-18T14:38:41.849Z,12.60
2022-09-18T14:41:28.546Z,12.50
2022-09-18T14:44:00.978Z,12.50
2022-09-18T14:46:28.489Z,12.50
2022-09-18T14:48:55.865Z,12.60
2022-09-18T14:51:25.479Z,12.60
2022-09-18T14:53:54.430Z,12.60
2022-09-18T14:56:33.730Z,12.70
2022-09-18T14:59:14.037Z,12.70
2022-09-18T15:01:40.923Z,12.70
2022-09-18T15:04:21.140Z,12.70
2022-09-18T15:06:53.889Z,12.70
2022-09-18T15:09:30.552Z,12.70
2022-09-18T15:14:44.013Z,12.70
2022-09-18T15:17:20.572Z,12.60
2022-09-18T15:20:02.435Z,12.60
2022-09-18T15:22:30.326Z,12.70
2022-09-18T15:27:28.809Z,12.60
2022-09-18T15:30:06.036Z,12.60
2022-09-18T15:32:38.553Z,12.60
2022-09-18T15:35:08.697Z,12.60
2022-09-18T15:37:38.172Z,12.60
2022-09-18T15:42:51.510Z,12.60
2022-09-18T15:45:21.544Z,12.50
2022-09-18T15:47:48.973Z,12.40
2022-09-18T15:52:48.249Z,12.40
2022-09-18T15:55:16.397Z,12.40
2022-09-18T15:57:51.760Z,12.40
2022-09-18T16:00:21.190Z,12.20
2022-09-18T16:02:59.546Z,12.30
2022-09-18T16:05:28.967Z,12.20
2022-09-18T16:10:41.040Z,12.30
2022-09-18T16:13:14.307Z,12.30
2022-09-18T16:15:47.238Z,12.20
2022-09-18T16:18:16.642Z,12.20
2022-09-18T16:21:01.659Z,12.20
2022-09-18T16:23:51.399Z,12.10
2022-09-18T16:26:26.825Z,12.10
2022-09-18T16:29:00.233Z,12.10
2022-09-18T16:31:29.840Z,12.00
2022-09-18T16:34:02.255Z,11.90
2022-09-18T16:36:36.531Z,11.80
2022-09-18T16:39:07.794Z,11.80
2022-09-18T16:41:35.144Z,11.80
2022-09-18T16:44:04.122Z,11.70
2022-09-18T16:46:54.937Z,11.70
2022-09-18T16:49:45.506Z,11.60
2022-09-18T16:52:13.825Z,11.60
2022-09-18T16:57:20.333Z,11.50
2022-09-18T16:59:49.485Z,11.50
2022-09-18T17:02:23.237Z,11.40
2022-09-18T17:04:52.240Z,11.50
2022-09-18T17:07:18.978Z,11.50
2022-09-18T17:09:46.070Z,11.40
2022-09-18T17:12:12.964Z,11.40
2022-09-18T17:17:08.037Z,11.40
2022-09-18T17:19:35.276Z,11.40
2022-09-18T17:22:02.078Z,11.40
2022-09-18T17:29:23.016Z,10.80
2022-09-18T17:36:46.149Z,10.70
2022-09-18T17:44:09.310Z,10.50
2022-09-18T17:49:03.318Z,10.30
2022-09-18T17:53:59.236Z,10.20
2022-09-18T17:56:32.577Z,10.20
2022-09-18T17:59:01.944Z,10.20
2022-09-18T18:01:29.722Z,10.10
2022-09-18T18:03:57.239Z,10.10
2022-09-18T18:06:24.521Z,10.20
2022-09-18T18:08:51.546Z,10.10
2022-09-18T18:11:22.036Z,10.00
2022-09-18T18:16:23.076Z,10.00
2022-09-18T18:18:51.211Z,10.00
2022-09-18T18:23:46.540Z,10.10
2022-09-18T18:28:41.545Z,10.00
2022-09-18T18:31:12.083Z,9.90
2022-09-18T18:33:41.013Z,9.90
2022-09-18T18:38:35.648Z,9.90
2022-09-18T18:43:37.634Z,9.90
2022-09-18T18:46:08.021Z,10.00
2022-09-18T18:48:36.785Z,10.00
2022-09-18T18:51:08.527Z,10.10
2022-09-18T18:56:09.193Z,10.10
2022-09-18T18:58:36.625Z,10.10
2022-09-18T19:01:06.433Z,10.00
2022-09-18T19:03:54.733Z,10.10
2022-09-18T19:06:23.698Z,10.10
2022-09-18T19:08:55.967Z,10.10
2022-09-18T19:11:22.779Z,10.10
2022-09-18T19:13:51.030Z,10.10
2022-09-18T19:21:19.349Z,10.20
2022-09-18T19:23:50.173Z,10.20
2022-09-18T19:36:07.227Z,10.10
2022-09-18T19:38:36.299Z,10.10
2022-09-18T19:43:48.684Z,9.90
2022-09-18T19:46:23.815Z,9.80
2022-09-18T19:51:17.992Z,9.70
2022-09-18T19:53:44.672Z,9.60
2022-09-18T19:58:58.627Z,9.50
2022-09-18T20:01:25.416Z,9.50
2022-09-18T20:03:53.687Z,9.40
2022-09-18T20:16:11.246Z,9.30
2022-09-18T20:26:08.108Z,9.30
2022-09-18T20:35:59.054Z,9.10
2022-09-18T20:38:30.523Z,9.10
2022-09-18T20:41:06.631Z,9.10
2022-09-18T20:43:34.040Z,9.10
2022-09-18T20:46:04.513Z,9.00
2022-09-18T20:51:09.181Z,9.00
2022-09-18T20:53:41.380Z,9.00
2022-09-18T20:56:10.765Z,9.00
2022-09-18T21:06:21.804Z,9.10
2022-09-18T21:11:23.886Z,9.10
2022-09-18T21:13:56.569Z,9.10
2022-09-18T21:18:53.820Z,9.10
2022-09-18T21:21:20.677Z,9.10
2022-09-18T21:26:24.323Z,9.10
2022-09-18T21:28:57.584Z,9.10
2022-09-18T21:36:24.277Z,9.10
2022-09-18T21:38:52.718Z,9.10
2022-09-18T21:51:16.743Z,9.20
2022-09-18T21:53:44.146Z,9.30
2022-09-18T21:58:46.659Z,9.30
2022-09-18T22:03:53.153Z,9.30
2022-09-18T22:06:21.688Z,9.40
2022-09-18T22:21:20.310Z,9.40
2022-09-18T22:23:55.602Z,9.40
2022-09-18T22:26:25.379Z,9.40
2022-09-18T22:31:21.132Z,9.30
2022-09-18T22:38:42.955Z,9.50
2022-09-18T22:43:37.424Z,9.40
2022-09-18T22:51:17.743Z,9.40
2022-09-18T22:58:47.600Z,9.40
2022-09-18T23:06:15.998Z,9.40
2022-09-18T23:11:13.467Z,9.40
2022-09-18T23:16:12.206Z,9.30
2022-09-18T23:23:37.166Z,9.30
2022-09-18T23:33:50.142Z,9.50
2022-09-18T23:36:19.443Z,9.60
2022-09-18T23:38:46.270Z,9.60
2022-09-18T23:41:16.952Z,9.60
2022-09-18T23:58:35.929Z,9.70
